Time;durP1;ratioP1;P1;durP2;ratioP2;P2;SDS_P1;SDS_P2;PMS_P1;PMS_P2;Temp;Humidity;BMP_temperature;BMP_pressure;BME280_temperature;BME280_humidity;BME280_pressure;Samples;Min_cycle;Max_cycle;Signal;HPM_P1;HPM_P2
2023/04/12 00:01:04;;;;;;;12.63;4.37;;;;;;;;;;4348843;32;19969;-78
2023/04/12 00:03:32;;;;;;;;;;;;;;;;;;4347234;33;20020;-78
2023/04/12 00:05:58;;;;;;;9.27;4.82;;;;;;;;;;4372588;32;20267;-78
2023/04/12 00:08:25;;;;;;;;;;;;;;;;;;4350464;33;20071;-78
2023/04/12 00:10:50;;;;;;;10.07;3.85;;;;;;;;;;4356227;32;19978;-79
2023/04/12 00:13:16;;;;;;;;;;;;;;;;;;4342802;33;20405;-78
2023/04/12 00:15:41;;;;;;;9.32;4.07;;;;;;;;;;4337203;33;19950;-78
2023/04/12 00:18:06;;;;;;;11.20;3.83;;;;;;;;;;4331814;33;20083;-79
2023/04/12 00:20:32;;;;;;;10.15;4.32;;;;;;;;;;4343206;33;20050;-78
2023/04/12 00:22:57;;;;;;;13.77;5.37;;;;;;;;;;4343327;33;20074;-79
2023/04/12 00:25:22;;;;;;;13.27;4.93;;;;;;;;;;4332509;33;20046;-79
2023/04/12 00:27:47;;;;;;;;;;;;;;;;;;4332110;33;20107;-79
2023/04/12 00:30:12;;;;;;;13.02;4.65;;;;;;;;;;4332481;33;19938;-79
2023/04/12 00:32:37;;;;;;;8.98;4.00;;;;;;;;;;4338461;33;20028;-80
2023/04/12 00:35:03;;;;;;;;;;;;;;;;;;4347064;32;20082;-81
2023/04/12 00:37:28;;;;;;;10.88;4.15;;;;;;;;;;4357412;32;19939;-79
2023/04/12 00:39:53;;;;;;;;;;;;;;;;;;4345094;32;20205;-79
2023/04/12 00:42:18;;;;;;;5.78;3.58;;;;;;;;;;4357655;32;20305;-80
2023/04/12 00:44:43;;;;;;;12.77;4.12;;;;;;;;;;4346927;32;20121;-79
2023/04/12 00:47:09;;;;;;;;;;;;;;;;;;4347123;32;20028;-80
2023/04/12 00:49:34;;;;;;;8.93;4.60;;;;;;;;;;4346012;32;19947;-79
2023/04/12 00:52:02;;;;;;;;;;;;;;;;;;4347267;33;20028;-81
2023/04/12 00:54:28;;;;;;;5.87;3.20;;;;;;;;;;4347731;33;19935;-80
2023/04/12 00:56:53;;;;;;;6.32;3.25;;;;;;;;;;4346730;33;20028;-81
2023/04/12 00:59:18;;;;;;;;;;;;;;;;;;4347474;33;20028;-80
2023/04/12 01:01:44;;;;;;;11.43;3.45;;;;;;;;;;4347719;33;19974;-79
2023/04/12 01:04:12;;;;;;;7.15;3.55;;;;;;;;;;4347482;33;20354;-79
2023/04/12 01:06:50;;;;;;;7.15;2.90;;;;;;;;;;4334062;33;20073;-80
2023/04/12 01:09:19;;;;;;;9.82;3.33;;;;;;;;;;4332947;33;20044;-80
2023/04/12 01:11:50;;;;;;;7.15;2.60;;;;;;;;;;4333947;33;20121;-79
2023/04/12 01:14:29;;;;;;;4.80;3.05;;;;;;;;;;4347028;33;20380;-79
2023/04/12 01:16:57;;;;;;;5.60;3.05;;;;;;;;;;4345698;33;20090;-79
2023/04/12 01:19:34;;;;;;;6.40;3.35;;;;;;;;;;4344686;33;20058;-80
2023/04/12 01:22:18;;;;;;;5.57;2.72;;;;;;;;;;4345945;33;20034;-79
2023/04/12 01:25:02;;;;;;;8.43;2.95;;;;;;;;;;4343279;33;20068;-80
2023/04/12 01:27:47;;;;;;;5.03;2.33;;;;;;;;;;4337477;33;20036;-80
2023/04/12 01:30:14;;;;;;;4.40;2.12;;;;;;;;;;4345058;33;20424;-80
2023/04/12 01:32:42;;;;;;;6.68;2.60;;;;;;;;;;4346924;33;20114;-80
2023/04/12 01:35:08;;;;;;;8.05;2.72;;;;;;;;;;4346752;33;20108;-79
2023/04/12 01:37:35;;;;;;;4.32;2.03;;;;;;;;;;4350904;33;20141;-80
2023/04/12 01:40:01;;;;;;;4.60;2.65;;;;;;;;;;4341963;33;20036;-79
2023/04/12 01:42:27;;;;;;;7.10;2.62;;;;;;;;;;4330693;33;20023;-79
2023/04/12 01:44:52;;;;;;;;;;;;;;;;;;4336993;33;20039;-78
2023/04/12 01:47:17;;;;;;;6.62;2.97;;;;;;;;;;4337291;33;19935;-77
2023/04/12 01:49:55;;;;;;;8.07;2.70;;;;;;;;;;4330672;33;20112;-78
2023/04/12 01:52:22;;;;;;;4.55;2.35;;;;;;;;;;4331640;33;20059;-78
2023/04/12 01:54:49;;;;;;;3.25;2.10;;;;;;;;;;4332000;33;20043;-78
2023/04/12 01:57:14;;;;;;;6.57;2.60;;;;;;;;;;4329888;33;20060;-77
2023/04/12 01:59:39;;;;;;;;;;;;;;;;;;4331526;33;20024;-78
2023/04/12 02:02:05;;;;;;;8.10;2.40;;;;;;;;;;4345664;33;19943;-78
2023/04/12 02:04:31;;;;;;;;;;;;;;;;;;4351306;33;20058;-78
2023/04/12 02:06:56;;;;;;;5.25;2.20;;;;;;;;;;4342286;33;19940;-78
2023/04/12 02:09:21;;;;;;;;;;;;;;;;;;4337488;33;20179;-79
2023/04/12 02:11:49;;;;;;;6.22;2.35;;;;;;;;;;4333886;33;19931;-79
2023/04/12 02:14:15;;;;;;;5.97;2.53;;;;;;;;;;4337825;33;20059;-79
2023/04/12 02:16:41;;;;;;;;;;;;;;;;;;4338785;33;20127;-80
2023/04/12 02:19:07;;;;;;;5.40;2.58;;;;;;;;;;4351872;33;19939;-79
2023/04/12 02:21:43;;;;;;;6.72;2.72;;;;;;;;;;4335085;33;20066;-78
2023/04/12 02:24:10;;;;;;;6.43;2.87;;;;;;;;;;4343166;33;20027;-77
2023/04/12 02:26:36;;;;;;;5.60;2.62;;;;;;;;;;4351011;33;20100;-77
2023/04/12 02:29:01;;;;;;;;;;;;;;;;;;4346068;33;20400;-79
2023/04/12 02:31:26;;;;;;;6.90;2.28;;;;;;;;;;4340939;33;19953;-78
2023/04/12 02:33:52;;;;;;;9.48;2.75;;;;;;;;;;4347820;33;20070;-78
2023/04/12 02:36:17;;;;;;;;;;;;;;;;;;4351366;33;20094;-78
2023/04/12 02:38:42;;;;;;;5.97;2.78;;;;;;;;;;4348323;33;19938;-77
2023/04/12 02:41:07;;;;;;;;;;;;;;;;;;4348271;33;20118;-77
2023/04/12 02:43:33;;;;;;;7.03;3.03;;;;;;;;;;4347910;33;19943;-78
2023/04/12 02:45:58;;;;;;;;;;;;;;;;;;4337993;33;20051;-76
2023/04/12 02:48:23;;;;;;;6.32;2.58;;;;;;;;;;4333186;33;19935;-76
2023/04/12 02:50:48;;;;;;;5.25;2.50;;;;;;;;;;4333903;33;20040;-76
2023/04/12 02:53:14;;;;;;;9.20;3.72;;;;;;;;;;4331867;33;20085;-77
2023/04/12 02:55:40;;;;;;;4.70;2.28;;;;;;;;;;4332426;33;20028;-75
2023/04/12 02:58:05;;;;;;;;;;;;;;;;;;4332494;33;20059;-75
2023/04/12 03:00:30;;;;;;;9.50;2.80;;;;;;;;;;4338599;33;19931;-76
2023/04/12 03:02:57;;;;;;;;;;;;;;;;;;4348541;33;20111;-76
2023/04/12 03:05:22;;;;;;;6.45;2.85;;;;;;;;;;4350952;33;19991;-77
2023/04/12 03:07:47;;;;;;;;;;;;;;;;;;4335950;33;20052;-75
2023/04/12 03:10:13;;;;;;;8.02;3.42;;;;;;;;;;4331807;33;19942;-75
2023/04/12 03:12:38;;;;;;;8.07;2.83;;;;;;;;;;4332417;33;20024;-75
2023/04/12 03:15:03;;;;;;;;;;;;;;;;;;4333780;33;20059;-75
2023/04/12 03:17:28;;;;;;;7.10;2.55;;;;;;;;;;4333544;33;19935;-75
2023/04/12 03:19:53;;;;;;;;;;;;;;;;;;4343034;33;20059;-75
2023/04/12 03:22:19;;;;;;;7.40;2.85;;;;;;;;;;4333806;33;20005;-74
2023/04/12 03:24:45;;;;;;;;;;;;;;;;;;4333182;33;20024;-76
2023/04/12 03:27:10;;;;;;;4.20;2.35;;;;;;;;;;4330980;33;19935;-77
2023/04/12 03:29:35;;;;;;;;;;;;;;;;;;4332638;33;20051;-77
2023/04/12 03:32:00;;;;;;;5.28;2.87;;;;;;;;;;4332604;33;19993;-76
2023/04/12 03:34:30;;;;;;;4.87;2.65;;;;;;;;;;4331750;33;20028;-76
2023/04/12 03:36:56;;;;;;;7.72;3.00;;;;;;;;;;4347940;33;20047;-77
2023/04/12 03:39:21;;;;;;;;;;;;;;;;;;4347493;33;20024;-77
2023/04/12 03:41:46;;;;;;;6.60;2.70;;;;;;;;;;4347868;33;20279;-76
2023/04/12 03:44:12;;;;;;;8.55;3.47;;;;;;;;;;4347394;33;20020;-77
2023/04/12 03:46:37;;;;;;;;;;;;;;;;;;4347196;33;20062;-77
2023/04/12 03:49:02;;;;;;;7.78;3.37;;;;;;;;;;4334278;33;19947;-78
2023/04/12 03:51:29;;;;;;;8.93;3.97;;;;;;;;;;4347040;33;20023;-77
2023/04/12 03:53:54;;;;;;;7.28;2.90;;;;;;;;;;4347352;33;20141;-78
2023/04/12 03:56:19;;;;;;;;;;;;;;;;;;4326831;33;20417;-77
2023/04/12 03:58:45;;;;;;;7.30;2.87;;;;;;;;;;4330785;33;19973;-77
2023/04/12 04:01:12;;;;;;;;;;;;;;;;;;4333133;33;20051;-76
2023/04/12 04:03:38;;;;;;;6.10;3.97;;;;;;;;;;4346677;33;19939;-77
2023/04/12 04:06:03;;;;;;;;;;;;;;;;;;4345937;33;20091;-77
2023/04/12 04:08:29;;;;;;;6.85;2.97;;;;;;;;;;4339717;33;19986;-77
2023/04/12 04:10:54;;;;;;;;;;;;;;;;;;4331181;33;20179;-78
2023/04/12 04:13:19;;;;;;;6.45;2.95;;;;;;;;;;4337305;33;19978;-77
2023/04/12 04:15:44;;;;;;;;;;;;;;;;;;4346826;33;20380;-77
2023/04/12 04:18:09;;;;;;;7.12;3.62;;;;;;;;;;4347774;33;20270;-77
2023/04/12 04:20:35;;;;;;;4.35;3.55;;;;;;;;;;4349511;33;20024;-77
2023/04/12 04:23:00;;;;;;;;;;;;;;;;;;4344975;33;20029;-78
2023/04/12 04:25:32;;;;;;;6.40;4.00;;;;;;;;;;4334553;33;19939;-77
2023/04/12 04:27:58;;;;;;;5.07;3.62;;;;;;;;;;4345569;33;20016;-77
2023/04/12 04:30:23;;;;;;;;;;;;;;;;;;4319222;33;20050;-76
2023/04/12 04:32:48;;;;;;;5.78;3.83;;;;;;;;;;4339654;33;19990;-76
2023/04/12 04:35:14;;;;;;;5.35;3.70;;;;;;;;;;4348993;33;20059;-79
2023/04/12 04:37:40;;;;;;;;;;;;;;;;;;4347153;33;20036;-76
2023/04/12 04:40:10;;;;;;;7.25;4.37;;;;;;;;;;4340313;33;19957;-76
2023/04/12 04:42:37;;;;;;;6.35;4.25;;;;;;;;;;4330146;33;20047;-76
2023/04/12 04:45:03;;;;;;;5.37;3.90;;;;;;;;;;4329890;33;20326;-76
2023/04/12 04:47:29;;;;;;;6.57;4.40;;;;;;;;;;4331225;33;20032;-76
2023/04/12 04:49:55;;;;;;;;;;;;;;;;;;4329904;33;20134;-76
2023/04/12 04:52:20;;;;;;;7.30;4.30;;;;;;;;;;4337265;33;19941;-75
2023/04/12 04:54:45;;;;;;;;;;;;;;;;;;4345931;33;20024;-75
2023/04/12 04:57:11;;;;;;;10.40;5.72;;;;;;;;;;4346796;33;19939;-76
2023/04/12 04:59:36;;;;;;;;;;;;;;;;;;4334504;33;20400;-76
2023/04/12 05:02:01;;;;;;;6.25;5.37;;;;;;;;;;4331680;33;19934;-76
2023/04/12 05:04:26;;;;;;;11.35;7.12;;;;;;;;;;4329796;33;20084;-76
2023/04/12 05:06:52;;;;;;;;;;;;;;;;;;4331808;33;20417;-75
2023/04/12 05:09:17;;;;;;;10.07;6.78;;;;;;;;;;4332350;33;20002;-75
2023/04/12 05:11:42;;;;;;;;;;;;;;;;;;4333141;33;20138;-77
2023/04/12 05:14:08;;;;;;;10.15;7.93;;;;;;;;;;4332403;33;19943;-76
2023/04/12 05:16:33;;;;;;;;;;;;;;;;;;4332847;33;20087;-77
2023/04/12 05:18:58;;;;;;;9.63;8.05;;;;;;;;;;4332211;33;20390;-78
2023/04/12 05:21:23;;;;;;;;;;;;;;;;;;4332217;33;20059;-77
2023/04/12 05:23:49;;;;;;;16.12;10.07;;;;;;;;;;4331091;33;19945;-77
2023/04/12 05:26:14;;;;;;;13.25;8.70;;;;;;;;;;4331047;33;20071;-77
2023/04/12 05:28:40;;;;;;;;;;;;;;;;;;4330236;33;20047;-77
2023/04/12 05:31:05;;;;;;;14.63;10.07;;;;;;;;;;4329909;33;20311;-76
2023/04/12 05:33:33;;;;;;;;;;;;;;;;;;4331009;33;20035;-76
2023/04/12 05:35:58;;;;;;;16.25;9.95;;;;;;;;;;4334717;33;19968;-77
2023/04/12 05:38:23;;;;;;;;;;;;;;;;;;4347495;33;20472;-77
2023/04/12 05:40:51;;;;;;;16.20;9.23;;;;;;;;;;4334802;33;19939;-77
2023/04/12 05:43:17;;;;;;;25.05;10.45;;;;;;;;;;4349194;33;20058;-77
2023/04/12 05:45:42;;;;;;;;;;;;;;;;;;4349468;33;20020;-77
2023/04/12 05:48:07;;;;;;;16.67;8.35;;;;;;;;;;4348721;33;19950;-77
2023/04/12 05:50:32;;;;;;;;;;;;;;;;;;4348926;33;20155;-78
2023/04/12 05:52:59;;;;;;;20.33;9.10;;;;;;;;;;4348323;33;19934;-77
2023/04/12 05:55:24;;;;;;;18.52;9.98;;;;;;;;;;4351064;33;20194;-78
2023/04/12 05:57:50;;;;;;;;;;;;;;;;;;4355101;33;20075;-79
2023/04/12 06:00:16;;;;;;;20.52;8.45;;;;;;;;;;4358822;33;19969;-79
2023/04/12 06:02:41;;;;;;;;;;;;;;;;;;4342480;33;20040;-78
2023/04/12 06:05:07;;;;;;;22.55;8.90;;;;;;;;;;4364468;33;19977;-78
2023/04/12 06:07:33;;;;;;;;;;;;;;;;;;4361333;33;20124;-80
2023/04/12 06:09:58;;;;;;;24.15;8.80;;;;;;;;;;4347075;33;19947;-79
2023/04/12 06:12:23;;;;;;;;;;;;;;;;;;4347177;33;20082;-78
2023/04/12 06:14:48;;;;;;;17.02;7.52;;;;;;;;;;4344859;33;19943;-77
2023/04/12 06:17:13;;;;;;;;;;;;;;;;;;4345270;33;20452;-79
2023/04/12 06:19:39;;;;;;;24.27;8.50;;;;;;;;;;4346269;33;20264;-79
2023/04/12 06:22:04;;;;;;;18.62;8.55;;;;;;;;;;4345386;33;20035;-80
2023/04/12 06:24:29;;;;;;;;;;;;;;;;;;4348347;33;20418;-79
2023/04/12 06:26:54;;;;;;;17.67;6.80;;;;;;;;;;4348008;33;20018;-78
2023/04/12 06:29:20;;;;;;;17.30;7.93;;;;;;;;;;4337938;33;20044;-78
2023/04/12 06:31:45;;;;;;;19.77;7.25;;;;;;;;;;4331047;33;20028;-79
2023/04/12 06:34:10;;;;;;;;;;;;;;;;;;4331942;33;20040;-80
2023/04/12 06:36:36;;;;;;;22.98;7.30;;;;;;;;;;4332062;33;19943;-78
2023/04/12 06:39:02;;;;;;;18.20;6.90;;;;;;;;;;4330624;33;20028;-79
2023/04/12 06:41:27;;;;;;;;;;;;;;;;;;4329955;33;20047;-81
2023/04/12 06:43:52;;;;;;;19.98;5.47;;;;;;;;;;4330066;33;19943;-81
2023/04/12 06:46:24;;;;;;;30.67;7.03;;;;;;;;;;4330093;33;20345;-80
2023/04/12 06:48:49;;;;;;;32.67;6.15;;;;;;;;;;4333201;33;20074;-81
2023/04/12 06:51:14;;;;;;;;;;;;;;;;;;4332396;33;20025;-81
2023/04/12 06:53:40;;;;;;;19.65;4.78;;;;;;;;;;4332380;33;19931;-82
2023/04/12 06:56:05;;;;;;;;;;;;;;;;;;4341806;33;20024;-82
2023/04/12 06:58:30;;;;;;;33.40;6.03;;;;;;;;;;4343494;33;19939;-82
2023/04/12 07:00:55;;;;;;;;;;;;;;;;;;4348745;33;20143;-82
2023/04/12 07:03:23;;;;;;;22.90;5.95;;;;;;;;;;4361695;32;19942;-83
2023/04/12 07:05:48;;;;;;;26.08;5.85;;;;;;;;;;4349103;33;20015;-83
2023/04/12 07:08:13;;;;;;;;;;;;;;;;;;4358765;32;20049;-82
2023/04/12 07:10:38;;;;;;;26.37;5.60;;;;;;;;;;4348244;33;19939;-83
2023/04/12 07:13:06;;;;;;;27.92;5.28;;;;;;;;;;4348713;33;20135;-83
2023/04/12 07:15:31;;;;;;;33.00;5.85;;;;;;;;;;4347892;33;20027;-84
2023/04/12 07:17:56;;;;;;;;;;;;;;;;;;4349167;33;20455;-84
2023/04/12 07:20:21;;;;;;;27.52;6.57;;;;;;;;;;4348448;33;19939;-83
2023/04/12 07:22:46;;;;;;;;;;;;;;;;;;4332954;33;20155;-82
2023/04/12 07:25:12;;;;;;;28.58;6.07;;;;;;;;;;4337881;33;19957;-82
2023/04/12 07:27:37;;;;;;;;;;;;;;;;;;4336042;33;20435;-82
2023/04/12 07:30:02;;;;;;;19.52;4.35;;;;;;;;;;4342464;33;19939;-81
2023/04/12 07:32:27;;;;;;;26.73;5.68;;;;;;;;;;4349976;32;20111;-83
2023/04/12 07:34:53;;;;;;;;;;;;;;;;;;4349081;33;20020;-85
2023/04/12 07:37:19;;;;;;;25.77;5.55;;;;;;;;;;4347719;33;20301;-83
2023/04/12 07:39:44;;;;;;;28.08;5.78;;;;;;;;;;4354618;33;20238;-81
2023/04/12 07:42:09;;;;;;;;;;;;;;;;;;4351585;33;20046;-81
2023/04/12 07:44:34;;;;;;;30.17;4.80;;;;;;;;;;4348250;33;19978;-82
2023/04/12 07:47:00;;;;;;;16.77;4.32;;;;;;;;;;4349444;33;20115;-80
2023/04/12 07:49:25;;;;;;;;;;;;;;;;;;4354114;33;20097;-81
2023/04/12 07:51:50;;;;;;;22.42;4.57;;;;;;;;;;4352046;32;20008;-81
2023/04/12 07:54:15;;;;;;;;;;;;;;;;;;4349161;32;20124;-81
2023/04/12 07:56:40;;;;;;;20.98;4.87;;;;;;;;;;4347268;32;20324;-80
2023/04/12 07:59:06;;;;;;;21.50;4.20;;;;;;;;;;4334441;33;20058;-80
2023/04/12 08:01:31;;;;;;;;;;;;;;;;;;4346074;33;20054;-80
2023/04/12 08:03:56;;;;;;;17.85;3.75;;;;;;;;;;4340879;33;19935;-81
2023/04/12 08:06:22;;;;;;;38.65;7.50;;;;;;;;;;4358864;33;20032;-80
2023/04/12 08:08:47;;;;;;;;;;;;;;;;;;4347053;33;20055;-81
2023/04/12 08:11:12;;;;;;;18.55;3.83;;;;;;;;;;4349219;32;20300;-80
2023/04/12 08:13:37;;;;;;;15.23;3.53;;;;;;;;;;4349050;32;20028;-81
2023/04/12 08:16:03;;;;;;;19.60;4.60;;;;;;;;;;4348107;32;20019;-81
2023/04/12 08:18:28;;;;;;;14.30;3.87;;;;;;;;;;4344215;32;20019;-82
2023/04/12 08:20:54;;;;;;;24.48;4.82;;;;;;;;;;4332877;33;20366;-80
2023/04/12 08:23:19;;;;;;;14.13;3.83;;;;;;;;;;4359598;32;20078;-82
2023/04/12 08:25:44;;;;;;;28.92;4.68;;;;;;;;;;4359895;33;20074;-82
2023/04/12 08:28:10;;;;;;;;;;;;;;;;;;4349542;32;20023;-81
2023/04/12 08:30:35;;;;;;;20.30;4.22;;;;;;;;;;4353968;32;20006;-81
2023/04/12 08:33:00;;;;;;;19.58;3.70;;;;;;;;;;4361982;32;20070;-80
2023/04/12 08:35:26;;;;;;;28.73;6.03;;;;;;;;;;4358875;33;20020;-82
2023/04/12 08:37:51;;;;;;;23.25;4.70;;;;;;;;;;4365725;32;20054;-81
2023/04/12 08:40:16;;;;;;;;;;;;;;;;;;4339999;33;20055;-80
2023/04/12 08:42:42;;;;;;;20.27;3.97;;;;;;;;;;4337389;33;19942;-80
2023/04/12 08:45:07;;;;;;;;;;;;;;;;;;4337310;33;20024;-81
2023/04/12 08:47:37;;;;;;;21.92;3.78;;;;;;;;;;4339102;33;19935;-82
2023/04/12 08:50:07;;;;;;;21.12;4.53;;;;;;;;;;4336709;33;20433;-82
2023/04/12 08:52:32;;;;;;;22.70;4.35;;;;;;;;;;4333779;33;20054;-82
2023/04/12 08:54:57;;;;;;;;;;;;;;;;;;4334482;33;20024;-81
2023/04/12 08:57:23;;;;;;;22.35;5.22;;;;;;;;;;4345096;33;20063;-82
2023/04/12 08:59:48;;;;;;;;;;;;;;;;;;4333597;33;20121;-82
2023/04/12 09:02:13;;;;;;;15.27;4.00;;;;;;;;;;4343494;33;19943;-81
2023/04/12 09:04:52;;;;;;;22.27;4.35;;;;;;;;;;4343512;33;20058;-81
2023/04/12 09:07:17;;;;;;;19.92;4.57;;;;;;;;;;4343412;33;20074;-81
2023/04/12 09:09:43;;;;;;;20.12;4.32;;;;;;;;;;4343725;33;20036;-82
2023/04/12 09:12:09;;;;;;;25.23;3.90;;;;;;;;;;4333846;33;20035;-81
2023/04/12 09:14:34;;;;;;;24.40;5.22;;;;;;;;;;4344886;33;20063;-82
2023/04/12 09:16:59;;;;;;;26.00;4.20;;;;;;;;;;4344540;33;20037;-81
2023/04/12 09:19:29;;;;;;;20.37;4.45;;;;;;;;;;4344259;33;20035;-81
2023/04/12 09:21:55;;;;;;;21.92;4.37;;;;;;;;;;4333401;33;20118;-81
2023/04/12 09:24:23;;;;;;;17.60;4.32;;;;;;;;;;4332999;33;20032;-81
2023/04/12 09:26:48;;;;;;;19.65;4.50;;;;;;;;;;4332949;33;20036;-80
2023/04/12 09:29:22;;;;;;;18.23;4.28;;;;;;;;;;4333386;33;20050;-82
2023/04/12 09:31:59;;;;;;;18.37;4.25;;;;;;;;;;4333655;33;20028;-82
2023/04/12 09:34:24;;;;;;;25.37;5.40;;;;;;;;;;4333682;33;20437;-84
2023/04/12 09:36:50;;;;;;;22.33;3.87;;;;;;;;;;4337090;33;20028;-82
2023/04/12 09:39:15;;;;;;;;;;;;;;;;;;4334852;33;20078;-81
2023/04/12 09:41:40;;;;;;;26.73;4.18;;;;;;;;;;4340107;33;19938;-81
2023/04/12 09:44:06;;;;;;;21.58;4.47;;;;;;;;;;4353260;32;20054;-82
2023/04/12 09:46:31;;;;;;;24.63;5.43;;;;;;;;;;4363494;33;20050;-81
2023/04/12 09:49:02;;;;;;;23.17;4.53;;;;;;;;;;4359172;32;20040;-81
2023/04/12 09:51:28;;;;;;;20.80;6.22;;;;;;;;;;4364243;32;20020;-80
2023/04/12 09:54:00;;;;;;;18.05;4.25;;;;;;;;;;4363537;32;20032;-81
2023/04/12 09:56:27;;;;;;;24.58;5.80;;;;;;;;;;4346623;33;20028;-81
2023/04/12 09:58:53;;;;;;;34.28;4.90;;;;;;;;;;4358007;32;20054;-80
2023/04/12 10:01:19;;;;;;;16.20;4.57;;;;;;;;;;4344161;32;20050;-80
2023/04/12 10:03:45;;;;;;;20.08;4.75;;;;;;;;;;4342735;33;20056;-82
2023/04/12 10:06:11;;;;;;;17.30;4.80;;;;;;;;;;4344069;33;20070;-82
2023/04/12 10:08:37;;;;;;;21.33;3.70;;;;;;;;;;4344313;33;20036;-83
2023/04/12 10:11:02;;;;;;;24.15;5.45;;;;;;;;;;4346233;33;20429;-81
2023/04/12 10:13:28;;;;;;;;;;;;;;;;;;4333966;33;20323;-82
2023/04/12 10:15:54;;;;;;;21.08;4.03;;;;;;;;;;4332592;33;20069;-83
2023/04/12 10:18:19;;;;;;;16.92;3.95;;;;;;;;;;4333806;33;20032;-80
2023/04/12 10:20:45;;;;;;;19.62;3.87;;;;;;;;;;4344631;33;20063;-82
2023/04/12 10:23:11;;;;;;;21.73;4.30;;;;;;;;;;4334384;33;20050;-82
2023/04/12 10:25:37;;;;;;;22.48;3.70;;;;;;;;;;4334899;33;20062;-81
2023/04/12 10:28:13;;;;;;;17.23;3.80;;;;;;;;;;4336026;33;20032;-80
2023/04/12 10:30:38;;;;;;;14.43;4.12;;;;;;;;;;4348089;33;20453;-81
2023/04/12 10:33:03;;;;;;;;;;;;;;;;;;4351543;33;20043;-82
2023/04/12 10:35:29;;;;;;;23.33;4.50;;;;;;;;;;4354792;32;19943;-81
2023/04/12 10:38:00;;;;;;;31.73;5.95;;;;;;;;;;4342604;33;20430;-81
2023/04/12 10:40:25;;;;;;;16.25;3.92;;;;;;;;;;4338043;33;20044;-81
2023/04/12 10:43:10;;;;;;;13.75;3.35;;;;;;;;;;4334031;33;20448;-82
2023/04/12 10:45:35;;;;;;;13.18;3.60;;;;;;;;;;4334621;33;20086;-81
2023/04/12 10:48:02;;;;;;;13.13;3.00;;;;;;;;;;4344691;33;20028;-81
2023/04/12 10:50:29;;;;;;;22.50;4.15;;;;;;;;;;4333219;33;20175;-82
2023/04/12 10:53:14;;;;;;;17.95;3.05;;;;;;;;;;4333276;33;20028;-81
2023/04/12 10:55:41;;;;;;;15.52;3.65;;;;;;;;;;4333197;33;20028;-82
2023/04/12 10:58:06;;;;;;;17.08;3.75;;;;;;;;;;4339144;33;20023;-82
2023/04/12 11:01:07;;;;;;;16.23;3.45;;;;;;;;;;4349973;33;20061;-80
2023/04/12 11:03:33;;;;;;;14.30;3.42;;;;;;;;;;4333076;33;20052;-80
2023/04/12 11:06:02;;;;;;;18.33;3.00;;;;;;;;;;4345646;33;20131;-80
2023/04/12 11:08:28;;;;;;;14.48;3.17;;;;;;;;;;4344954;33;20027;-82
2023/04/12 11:11:03;;;;;;;23.75;3.10;;;;;;;;;;4334418;33;20074;-81
2023/04/12 11:13:33;;;;;;;15.73;3.20;;;;;;;;;;4333129;33;20050;-81
2023/04/12 11:16:05;;;;;;;13.13;3.42;;;;;;;;;;4336217;33;20035;-82
2023/04/12 11:18:32;;;;;;;10.57;2.92;;;;;;;;;;4349230;33;20443;-80
2023/04/12 11:20:57;;;;;;;12.30;3.17;;;;;;;;;;4324475;33;20036;-81
2023/04/12 11:23:22;;;;;;;12.90;2.58;;;;;;;;;;4332810;33;20444;-81
2023/04/12 11:25:53;;;;;;;15.18;2.70;;;;;;;;;;4334120;33;20407;-81
2023/04/12 11:28:19;;;;;;;10.57;2.28;;;;;;;;;;4333500;33;20349;-81
2023/04/12 11:30:54;;;;;;;8.02;2.30;;;;;;;;;;4334950;33;20064;-81
2023/04/12 11:33:31;;;;;;;11.68;3.00;;;;;;;;;;4333747;33;20476;-82
2023/04/12 11:35:56;;;;;;;11.55;2.17;;;;;;;;;;4334744;33;20020;-80
2023/04/12 11:38:22;;;;;;;9.60;2.45;;;;;;;;;;4333349;33;20119;-81
2023/04/12 11:40:47;;;;;;;10.55;3.33;;;;;;;;;;4331765;33;20074;-81
2023/04/12 11:43:12;;;;;;;;;;;;;;;;;;4332274;33;20493;-79
2023/04/12 11:45:37;;;;;;;7.70;2.00;;;;;;;;;;4333574;33;19950;-81
2023/04/12 11:48:06;;;;;;;4.72;1.60;;;;;;;;;;4333251;33;20070;-80
2023/04/12 11:50:31;;;;;;;7.60;2.00;;;;;;;;;;4318034;33;20048;-80
2023/04/12 11:53:08;;;;;;;4.70;1.60;;;;;;;;;;4316945;33;20382;-82
2023/04/12 11:55:33;;;;;;;;;;;;;;;;;;4319263;33;20044;-82
2023/04/12 11:57:58;;;;;;;7.60;2.12;;;;;;;;;;4319263;33;19955;-81
2023/04/12 12:00:24;;;;;;;6.47;2.15;;;;;;;;;;4320067;33;20051;-82
2023/04/12 12:02:50;;;;;;;9.68;2.95;;;;;;;;;;4325035;33;20027;-82
2023/04/12 12:05:16;;;;;;;10.30;2.47;;;;;;;;;;4322364;33;20055;-82
2023/04/12 12:07:41;;;;;;;10.55;2.53;;;;;;;;;;4317700;33;20051;-82
2023/04/12 12:10:07;;;;;;;8.25;2.20;;;;;;;;;;4320279;33;20346;-81
2023/04/12 12:12:33;;;;;;;8.10;1.90;;;;;;;;;;4337078;33;20083;-81
2023/04/12 12:14:59;;;;;;;4.05;1.75;;;;;;;;;;4335047;33;20035;-82
2023/04/12 12:17:26;;;;;;;6.87;1.85;;;;;;;;;;4334688;33;20024;-85
2023/04/12 12:19:55;;;;;;;8.45;3.00;;;;;;;;;;4340496;33;20043;-81
2023/04/12 12:22:21;;;;;;;3.67;1.85;;;;;;;;;;4320950;33;20392;-82
2023/04/12 12:24:50;;;;;;;7.68;1.70;;;;;;;;;;4336658;33;20040;-81
2023/04/12 12:27:19;;;;;;;4.87;1.98;;;;;;;;;;4342101;33;20059;-81
2023/04/12 12:29:47;;;;;;;10.77;2.55;;;;;;;;;;4333865;33;20032;-79
2023/04/12 12:32:13;;;;;;;10.23;2.08;;;;;;;;;;4333132;33;20054;-79
2023/04/12 12:34:39;;;;;;;6.70;1.90;;;;;;;;;;4333876;33;20032;-81
2023/04/12 12:37:08;;;;;;;16.23;2.60;;;;;;;;;;4347532;33;20094;-82
2023/04/12 12:39:35;;;;;;;8.25;2.10;;;;;;;;;;4334586;33;20021;-82
2023/04/12 12:42:01;;;;;;;12.25;2.92;;;;;;;;;;4346361;33;20024;-80
2023/04/12 12:44:26;;;;;;;7.25;2.22;;;;;;;;;;4342154;33;20027;-80
2023/04/12 12:46:52;;;;;;;7.18;2.20;;;;;;;;;;4342387;33;20099;-81
2023/04/12 12:49:17;;;;;;;;;;;;;;;;;;4348690;33;20190;-80
2023/04/12 12:51:42;;;;;;;11.32;2.40;;;;;;;;;;4356201;33;19942;-81
2023/04/12 12:54:07;;;;;;;;;;;;;;;;;;4357148;33;20065;-81
2023/04/12 12:56:34;;;;;;;10.55;2.30;;;;;;;;;;4358077;33;19966;-81
2023/04/12 12:58:59;;;;;;;6.53;2.08;;;;;;;;;;4357520;32;20059;-80
2023/04/12 13:01:26;;;;;;;8.30;2.00;;;;;;;;;;4349761;32;20330;-82
2023/04/12 13:03:51;;;;;;;13.05;2.12;;;;;;;;;;4356565;32;20101;-80
2023/04/12 13:06:16;;;;;;;7.65;2.10;;;;;;;;;;4349115;33;20047;-81
2023/04/12 13:08:41;;;;;;;9.43;2.80;;;;;;;;;;4349608;33;20086;-81
2023/04/12 13:11:07;;;;;;;7.37;1.87;;;;;;;;;;4357265;33;20027;-80
2023/04/12 13:13:32;;;;;;;5.78;2.00;;;;;;;;;;4344622;33;20028;-81
2023/04/12 13:15:57;;;;;;;10.18;2.22;;;;;;;;;;4350995;32;20425;-80
2023/04/12 13:18:23;;;;;;;10.98;2.45;;;;;;;;;;4343843;33;20079;-80
2023/04/12 13:20:48;;;;;;;9.77;2.55;;;;;;;;;;4358734;33;20043;-82
2023/04/12 13:23:13;;;;;;;6.72;2.17;;;;;;;;;;4355860;32;20467;-82
2023/04/12 13:25:38;;;;;;;5.15;2.55;;;;;;;;;;4356565;32;20054;-84
2023/04/12 13:28:03;;;;;;;4.97;1.35;;;;;;;;;;4359020;33;20129;-84
2023/04/12 13:30:29;;;;;;;4.07;1.37;;;;;;;;;;4353397;33;20405;-83
2023/04/12 13:32:54;;;;;;;;;;;;;;;;;;4357180;32;20115;-83
2023/04/12 13:35:19;;;;;;;4.80;1.52;;;;;;;;;;4346206;33;20264;-83
2023/04/12 13:37:44;;;;;;;;;;;;;;;;;;4353424;33;20160;-83
2023/04/12 13:40:09;;;;;;;4.22;1.58;;;;;;;;;;4352575;32;19974;-83
2023/04/12 13:42:35;;;;;;;5.35;1.48;;;;;;;;;;4356975;33;20450;-82
2023/04/12 13:45:00;;;;;;;7.85;1.87;;;;;;;;;;4356463;33;20103;-82
2023/04/12 13:47:26;;;;;;;4.50;2.17;;;;;;;;;;4353839;33;20046;-82
2023/04/12 13:49:51;;;;;;;3.45;1.48;;;;;;;;;;4356884;33;20437;-82
2023/04/12 13:52:16;;;;;;;4.78;1.70;;;;;;;;;;4351863;33;20106;-82
2023/04/12 13:54:42;;;;;;;5.68;1.92;;;;;;;;;;4353486;33;20036;-83
2023/04/12 13:57:07;;;;;;;4.78;1.20;;;;;;;;;;4355236;33;20090;-82
2023/04/12 13:59:32;;;;;;;5.25;1.35;;;;;;;;;;4352674;32;20058;-83
2023/04/12 14:01:58;;;;;;;4.07;1.73;;;;;;;;;;4350349;33;20213;-84
2023/04/12 14:04:25;;;;;;;5.37;1.67;;;;;;;;;;4349568;33;20032;-82
2023/04/12 14:06:51;;;;;;;4.85;1.25;;;;;;;;;;4357575;33;20082;-82
2023/04/12 14:09:24;;;;;;;6.62;1.92;;;;;;;;;;4356208;33;20071;-82
2023/04/12 14:11:49;;;;;;;6.18;1.80;;;;;;;;;;4353760;33;20167;-81
2023/04/12 14:14:14;;;;;;;3.65;1.20;;;;;;;;;;4356810;33;20047;-82
2023/04/12 14:16:39;;;;;;;3.20;1.33;;;;;;;;;;4356026;33;20028;-80
2023/04/12 14:19:05;;;;;;;1.77;1.00;;;;;;;;;;4337416;33;20086;-84
2023/04/12 14:21:30;;;;;;;4.65;1.45;;;;;;;;;;4334841;33;20066;-81
2023/04/12 14:23:55;;;;;;;;;;;;;;;;;;4340545;33;20024;-82
2023/04/12 14:26:21;;;;;;;4.57;1.00;;;;;;;;;;4349677;33;19987;-82
2023/04/12 14:28:48;;;;;;;3.25;1.35;;;;;;;;;;4351589;33;20043;-82
2023/04/12 14:31:14;;;;;;;3.12;1.60;;;;;;;;;;4351212;33;20036;-81
2023/04/12 14:33:40;;;;;;;4.20;1.05;;;;;;;;;;4350749;33;20024;-83
2023/04/12 14:36:07;;;;;;;4.85;1.35;;;;;;;;;;4349938;33;20055;-82
2023/04/12 14:38:32;;;;;;;3.22;1.48;;;;;;;;;;4348985;32;20027;-81
2023/04/12 14:40:57;;;;;;;5.95;1.90;;;;;;;;;;4350916;33;20103;-83
2023/04/12 14:43:22;;;;;;;5.53;2.08;;;;;;;;;;4347457;33;20039;-82
2023/04/12 14:45:48;;;;;;;2.78;1.25;;;;;;;;;;4366449;32;20031;-80
2023/04/12 14:48:13;;;;;;;4.07;1.35;;;;;;;;;;4353499;32;20023;-83
2023/04/12 14:50:38;;;;;;;8.23;1.87;;;;;;;;;;4363231;32;20028;-79
2023/04/12 14:53:04;;;;;;;2.45;1.17;;;;;;;;;;4360327;32;20090;-83
2023/04/12 14:55:29;;;;;;;;;;;;;;;;;;4359805;32;20047;-84
2023/04/12 14:57:54;;;;;;;3.72;1.50;;;;;;;;;;4341714;33;19985;-83